createdAt,value
2022-11-28T00:01:30.951Z,1.00
2022-11-28T00:03:58.606Z,1.20
2022-11-28T00:06:27.245Z,1.05
2022-11-28T00:08:55.138Z,1.00
2022-11-28T00:13:48.799Z,1.00
2022-11-28T00:16:22.074Z,1.35
2022-11-28T00:18:54.967Z,1.13
2022-11-28T00:21:23.054Z,1.27
2022-11-28T00:23:50.760Z,1.15
2022-11-28T00:26:24.434Z,0.95
2022-11-28T00:28:51.768Z,1.10
2022-11-28T00:31:25.245Z,1.08
2022-11-28T00:33:52.922Z,1.10
2022-11-28T00:38:48.897Z,0.77
2022-11-28T00:41:22.740Z,1.00
2022-11-28T00:43:51.242Z,1.08
2022-11-28T00:46:20.576Z,0.95
2022-11-28T00:48:48.577Z,1.10
2022-11-28T00:51:22.088Z,0.90
2022-11-28T00:53:52.130Z,1.10
2022-11-28T00:56:24.013Z,0.90
2022-11-28T00:58:51.226Z,1.15
2022-11-28T01:01:25.768Z,0.93
2022-11-28T01:03:55.226Z,0.95
2022-11-28T01:06:31.642Z,1.35
2022-11-28T01:09:01.493Z,0.90
2022-11-28T01:11:29.843Z,1.05
2022-11-28T01:13:59.985Z,1.13
2022-11-28T01:16:28.409Z,1.02
2022-11-28T01:18:55.342Z,1.08
2022-11-28T01:21:22.394Z,1.08
2022-11-28T01:23:49.921Z,0.93
2022-11-28T01:26:22.277Z,1.08
2022-11-28T01:28:49.432Z,0.90
2022-11-28T01:31:24.358Z,0.80
2022-11-28T01:33:52.449Z,0.82
2022-11-28T01:36:20.692Z,1.05
2022-11-28T01:38:48.854Z,1.10
2022-11-28T01:41:23.928Z,0.73
2022-11-28T01:44:29.541Z,0.80
2022-11-28T01:46:56.871Z,0.90
2022-11-28T01:49:36.785Z,0.63
2022-11-28T01:52:12.069Z,0.98
2022-11-28T01:54:43.814Z,0.82
2022-11-28T01:57:21.196Z,0.82
2022-11-28T02:00:09.235Z,0.80
2022-11-28T02:02:48.079Z,0.80
2022-11-28T02:05:17.801Z,0.82
2022-11-28T02:07:46.115Z,0.73
2022-11-28T02:10:20.669Z,0.93
2022-11-28T02:12:50.092Z,0.90
2022-11-28T02:15:29.856Z,0.80
2022-11-28T02:18:59.911Z,1.00
2022-11-28T02:22:23.378Z,1.00
2022-11-28T02:25:25.812Z,0.93
2022-11-28T02:28:16.510Z,0.80
2022-11-28T02:31:23.225Z,1.00
2022-11-28T02:33:57.542Z,0.70
2022-11-28T02:36:34.113Z,0.80
2022-11-28T02:39:16.029Z,0.65
2022-11-28T02:42:02.750Z,0.80
2022-11-28T02:44:47.509Z,0.65
2022-11-28T02:47:48.883Z,0.77
2022-11-28T02:50:41.994Z,0.80
2022-11-28T02:53:22.370Z,0.75
2022-11-28T02:55:51.971Z,0.68
2022-11-28T02:58:18.879Z,0.90
2022-11-28T03:00:48.991Z,0.85
2022-11-28T03:03:15.703Z,0.88
2022-11-28T03:06:03.694Z,0.80
2022-11-28T03:09:17.243Z,0.60
2022-11-28T03:11:58.805Z,0.65
2022-11-28T03:14:54.617Z,0.73
2022-11-28T03:17:48.244Z,0.80
2022-11-28T03:20:17.364Z,0.80
2022-11-28T03:23:24.237Z,0.70
2022-11-28T03:26:05.563Z,0.70
2022-11-28T03:28:45.782Z,0.77
2022-11-28T03:31:24.429Z,0.82
2022-11-28T03:33:59.451Z,0.77
2022-11-28T03:36:35.832Z,0.77
2022-11-28T03:39:10.788Z,0.50
2022-11-28T03:42:22.422Z,0.82
2022-11-28T03:45:03.242Z,0.82
2022-11-28T03:47:42.817Z,0.65
2022-11-28T03:50:19.617Z,0.63
2022-11-28T03:53:13.723Z,0.73
2022-11-28T03:55:50.327Z,0.80
2022-11-28T03:58:40.405Z,0.70
2022-11-28T04:01:26.568Z,1.00
2022-11-28T04:04:27.187Z,0.73
2022-11-28T04:07:22.983Z,0.80
2022-11-28T04:10:06.300Z,0.80
2022-11-28T04:13:01.680Z,0.75
2022-11-28T04:15:43.528Z,0.60
2022-11-28T04:18:31.355Z,0.75
2022-11-28T04:21:03.789Z,0.95
2022-11-28T04:23:34.367Z,0.82
2022-11-28T04:26:13.405Z,0.77
2022-11-28T04:28:42.119Z,0.73
2022-11-28T04:31:10.301Z,0.60
2022-11-28T04:33:44.515Z,0.70
2022-11-28T04:36:14.668Z,0.70
2022-11-28T04:38:48.621Z,0.73
2022-11-28T04:41:23.413Z,0.80
2022-11-28T04:44:05.956Z,0.70
2022-11-28T04:46:47.321Z,0.73
2022-11-28T04:49:14.714Z,0.85
2022-11-28T04:52:08.768Z,0.85
2022-11-28T04:55:22.389Z,0.93
2022-11-28T04:57:57.627Z,0.70
2022-11-28T05:00:26.315Z,0.75
2022-11-28T05:02:55.133Z,0.88
2022-11-28T05:05:26.133Z,1.00
2022-11-28T05:07:53.619Z,0.82
2022-11-28T05:10:20.879Z,0.70
2022-11-28T05:12:47.708Z,0.82
2022-11-28T05:15:19.052Z,0.80
2022-11-28T05:17:46.926Z,0.75
2022-11-28T05:20:14.974Z,0.77
2022-11-28T05:22:41.777Z,0.75
2022-11-28T05:25:09.018Z,0.60
2022-11-28T05:27:36.206Z,0.90
2022-11-28T05:30:06.054Z,0.60
2022-11-28T05:32:33.391Z,0.98
2022-11-28T05:35:00.243Z,0.77
2022-11-28T05:37:27.051Z,0.93
2022-11-28T05:39:54.077Z,0.98
2022-11-28T05:42:21.210Z,0.95
2022-11-28T05:44:48.310Z,1.00
2022-11-28T05:47:18.178Z,0.73
2022-11-28T05:49:47.452Z,1.00
2022-11-28T05:52:14.284Z,1.08
2022-11-28T05:54:41.262Z,0.80
2022-11-28T05:57:08.188Z,0.85
2022-11-28T05:59:35.493Z,0.70
2022-11-28T06:02:02.372Z,1.00
2022-11-28T06:04:29.465Z,1.10
2022-11-28T06:06:56.425Z,0.98
2022-11-28T06:09:25.771Z,1.50
2022-11-28T06:11:53.391Z,1.02
2022-11-28T06:14:20.249Z,0.90
2022-11-28T06:16:47.100Z,0.77
2022-11-28T06:19:14.149Z,1.23
2022-11-28T06:21:41.252Z,1.08
2022-11-28T06:24:10.632Z,1.03
2022-11-28T06:26:37.493Z,0.90
2022-11-28T06:29:04.477Z,0.88
2022-11-28T06:31:31.463Z,0.90
2022-11-28T06:33:59.043Z,1.10
2022-11-28T06:36:27.786Z,0.80
2022-11-28T06:38:54.650Z,0.90
2022-11-28T06:41:22.933Z,0.85
2022-11-28T06:43:50.001Z,0.77
2022-11-28T06:46:20.583Z,1.10
2022-11-28T06:48:49.670Z,1.00
2022-11-28T06:51:17.808Z,0.90
2022-11-28T06:53:45.004Z,1.10
2022-11-28T06:56:16.191Z,0.77
2022-11-28T06:58:44.505Z,0.70
2022-11-28T07:01:21.235Z,0.80
2022-11-28T07:03:49.311Z,1.10
2022-11-28T07:06:18.453Z,0.88
2022-11-28T07:08:45.388Z,1.15
2022-11-28T07:11:22.501Z,1.00
2022-11-28T07:13:50.766Z,0.90
2022-11-28T07:16:31.732Z,0.80
2022-11-28T07:18:59.678Z,0.65
2022-11-28T07:21:28.309Z,0.88
2022-11-28T07:23:55.398Z,0.80
2022-11-28T07:26:22.545Z,0.90
2022-11-28T07:29:07.546Z,0.82
2022-11-28T07:31:34.511Z,0.80
2022-11-28T07:34:03.595Z,0.90
2022-11-28T07:36:31.206Z,0.80
2022-11-28T07:39:01.742Z,1.00
2022-11-28T07:41:29.629Z,0.88
2022-11-28T07:43:59.981Z,0.88
2022-11-28T07:46:33.946Z,0.82
2022-11-28T07:49:01.688Z,0.88
2022-11-28T07:54:00.968Z,0.70
2022-11-28T07:56:50.143Z,0.68
2022-11-28T07:59:18.117Z,0.88
2022-11-28T08:01:45.055Z,0.98
2022-11-28T08:04:12.049Z,1.10
2022-11-28T08:06:43.401Z,1.25
2022-11-28T08:09:12.424Z,1.10
2022-11-28T08:11:41.940Z,1.15
2022-11-28T08:14:09.502Z,0.80
2022-11-28T08:16:37.090Z,1.00
2022-11-28T08:19:04.287Z,0.90
2022-11-28T08:21:34.242Z,0.68
2022-11-28T08:24:03.361Z,0.80
2022-11-28T08:26:32.815Z,0.80
2022-11-28T08:29:02.476Z,0.70
2022-11-28T08:31:36.961Z,0.70
2022-11-28T08:34:07.837Z,1.15
2022-11-28T08:36:34.703Z,1.00
2022-11-28T08:39:32.753Z,1.10
2022-11-28T08:41:50.452Z,1.00
2022-11-28T08:44:17.298Z,1.30
2022-11-28T08:46:44.525Z,0.93
2022-11-28T08:49:11.308Z,1.20
2022-11-28T08:51:38.097Z,1.10
2022-11-28T08:54:05.149Z,2.47
2022-11-28T08:56:33.044Z,2.03
2022-11-28T08:59:00.630Z,1.25
2022-11-28T09:03:57.841Z,0.88
2022-11-28T09:06:25.177Z,1.05
2022-11-28T09:08:52.358Z,1.00
2022-11-28T09:11:21.731Z,0.82
2022-11-28T09:13:49.541Z,1.05
2022-11-28T09:16:17.332Z,0.80
2022-11-28T09:18:44.316Z,0.70
2022-11-28T09:21:14.407Z,0.95
2022-11-28T09:23:43.921Z,0.98
2022-11-28T09:26:21.548Z,1.02
2022-11-28T09:28:48.756Z,1.08
2022-11-28T09:31:18.394Z,1.10
2022-11-28T09:33:47.174Z,1.20
2022-11-28T09:36:18.903Z,1.27
2022-11-28T09:38:46.439Z,1.10
2022-11-28T09:41:35.557Z,1.08
2022-11-28T09:44:32.590Z,1.00
2022-11-28T09:47:08.864Z,1.00
2022-11-28T09:49:45.515Z,1.25
2022-11-28T09:52:28.846Z,0.82
2022-11-28T09:55:26.064Z,0.95
2022-11-28T09:57:54.383Z,1.50
2022-11-28T10:00:30.082Z,1.98
2022-11-28T10:03:18.083Z,1.92
2022-11-28T10:05:50.730Z,2.60
2022-11-28T10:08:30.402Z,1.50
2022-11-28T10:11:25.335Z,2.00
2022-11-28T10:14:53.981Z,1.10
2022-11-28T10:17:35.208Z,0.93
2022-11-28T10:20:21.035Z,1.10
2022-11-28T10:23:16.253Z,1.35
2022-11-28T10:26:01.509Z,1.20
2022-11-28T10:28:46.232Z,1.00
2022-11-28T10:31:36.660Z,1.30
2022-11-28T10:34:19.101Z,1.08
2022-11-28T10:37:03.313Z,0.82
2022-11-28T10:39:30.463Z,1.08
2022-11-28T10:42:21.733Z,0.85
2022-11-28T10:45:03.685Z,0.70
2022-11-28T10:48:38.149Z,0.70
2022-11-28T10:51:24.134Z,0.90
2022-11-28T10:54:33.893Z,0.77
2022-11-28T10:57:26.454Z,0.95
2022-11-28T11:00:18.341Z,0.98
2022-11-28T11:02:50.832Z,0.85
2022-11-28T11:05:37.989Z,0.85
2022-11-28T11:08:24.129Z,1.30
2022-11-28T11:10:58.595Z,1.00
2022-11-28T11:13:32.678Z,0.88
2022-11-28T11:16:11.602Z,1.25
2022-11-28T11:18:54.960Z,0.80
2022-11-28T11:21:24.848Z,1.00
2022-11-28T11:24:18.402Z,1.00
2022-11-28T11:26:48.798Z,1.40
2022-11-28T11:29:36.853Z,1.20
2022-11-28T11:32:07.138Z,0.90
2022-11-28T11:34:44.916Z,0.80
2022-11-28T11:37:33.533Z,0.63
2022-11-28T11:40:03.458Z,0.57
2022-11-28T11:42:33.336Z,0.60
2022-11-28T11:45:27.645Z,0.70
2022-11-28T11:47:54.807Z,0.47
2022-11-28T11:50:26.626Z,0.70
2022-11-28T11:53:22.741Z,0.88
2022-11-28T11:55:54.482Z,0.77
2022-11-28T11:58:39.594Z,0.80
2022-11-28T12:01:08.846Z,0.70
2022-11-28T12:03:55.166Z,0.90
2022-11-28T12:06:29.407Z,0.80
2022-11-28T12:09:32.340Z,0.80
2022-11-28T12:12:24.489Z,0.80
2022-11-28T12:14:52.604Z,0.82
2022-11-28T12:18:15.881Z,1.00
2022-11-28T12:21:06.890Z,0.70
2022-11-28T12:23:50.075Z,0.70
2022-11-28T12:26:34.756Z,1.30
2022-11-28T12:29:41.650Z,0.90
2022-11-28T12:32:44.358Z,0.80
2022-11-28T12:35:37.899Z,0.80
2022-11-28T12:38:52.016Z,1.10
2022-11-28T12:42:14.478Z,0.90
2022-11-28T12:45:10.669Z,0.90
2022-11-28T12:47:54.761Z,1.00
2022-11-28T12:50:24.381Z,0.93
2022-11-28T12:53:12.608Z,0.93
2022-11-28T12:56:22.162Z,0.65
2022-11-28T12:59:02.578Z,1.05
2022-11-28T13:01:54.875Z,1.00
2022-11-28T13:05:06.189Z,1.00
2022-11-28T13:08:44.749Z,1.00
2022-11-28T13:11:40.089Z,0.73
2022-11-28T13:14:16.153Z,1.10
2022-11-28T13:16:51.561Z,1.02
2022-11-28T13:19:37.629Z,1.67
2022-11-28T13:22:23.528Z,1.00
2022-11-28T13:25:08.214Z,1.02
2022-11-28T13:27:50.532Z,1.02
2022-11-28T13:30:22.633Z,1.05
2022-11-28T13:33:29.655Z,1.10
2022-11-28T13:35:59.454Z,1.25
2022-11-28T13:39:04.853Z,1.30
2022-11-28T13:45:00.321Z,1.13
2022-11-28T13:47:35.164Z,1.08
2022-11-28T13:50:39.610Z,1.08
2022-11-28T13:53:07.476Z,1.15
2022-11-28T13:55:57.983Z,1.40
2022-11-28T13:58:46.511Z,1.00
2022-11-28T14:01:26.235Z,1.00
2022-11-28T14:04:07.554Z,1.00
2022-11-28T14:06:49.689Z,1.10
2022-11-28T14:09:16.512Z,1.20
2022-11-28T14:12:04.988Z,1.30
2022-11-28T14:14:57.436Z,1.38
2022-11-28T14:18:31.500Z,1.10
2022-11-28T14:21:05.609Z,1.17
2022-11-28T14:23:59.261Z,1.00
2022-11-28T14:26:40.358Z,1.10
2022-11-28T14:29:24.706Z,1.90
2022-11-28T14:32:14.138Z,1.65
2022-11-28T14:37:20.707Z,2.00
2022-11-28T14:39:56.146Z,1.75
2022-11-28T14:42:58.869Z,2.40
2022-11-28T14:45:42.038Z,1.70
2022-11-28T14:48:23.969Z,1.50
2022-11-28T14:51:00.943Z,1.70
2022-11-28T14:53:34.744Z,1.08
2022-11-28T14:56:13.737Z,1.63
2022-11-28T14:58:50.234Z,1.55
2022-11-28T15:01:34.139Z,2.30
2022-11-28T15:04:34.370Z,2.17
2022-11-28T15:07:06.293Z,1.52
2022-11-28T15:09:56.629Z,2.65
2022-11-28T15:12:52.902Z,2.53
2022-11-28T15:15:20.622Z,1.80
2022-11-28T15:20:33.274Z,2.08
2022-11-28T15:23:00.241Z,1.30
2022-11-28T15:25:35.265Z,2.10
2022-11-28T15:28:19.160Z,2.75
2022-11-28T15:30:50.069Z,2.95
2022-11-28T15:33:17.368Z,2.70
2022-11-28T15:36:10.908Z,1.75
2022-11-28T15:38:42.006Z,1.80
2022-11-28T15:41:10.861Z,1.70
2022-11-28T15:43:42.204Z,1.95
2022-11-28T15:46:20.681Z,1.73
2022-11-28T15:48:52.976Z,1.67
2022-11-28T15:51:33.013Z,2.13
2022-11-28T15:54:03.406Z,2.30
2022-11-28T15:56:30.443Z,1.63
2022-11-28T15:58:57.372Z,1.80
2022-11-28T16:01:27.129Z,2.92
2022-11-28T16:04:13.331Z,1.85
2022-11-28T16:06:45.259Z,1.83
2022-11-28T16:09:18.016Z,2.00
2022-11-28T16:11:52.107Z,2.03
2022-11-28T16:14:34.185Z,1.88
2022-11-28T16:17:12.460Z,2.10
2022-11-28T16:22:11.701Z,1.63
2022-11-28T16:24:55.529Z,1.55
2022-11-28T16:27:37.420Z,2.95
2022-11-28T16:30:37.568Z,4.10
2022-11-28T16:33:43.506Z,3.15
2022-11-28T16:36:25.191Z,3.20
2022-11-28T16:39:04.980Z,2.50
2022-11-28T16:41:32.556Z,2.50
2022-11-28T16:44:08.140Z,2.22
2022-11-28T16:47:00.093Z,2.38
2022-11-28T16:49:55.698Z,2.20
2022-11-28T16:52:22.545Z,1.90
2022-11-28T16:54:55.761Z,2.03
2022-11-28T16:57:25.528Z,2.40
2022-11-28T16:59:56.434Z,2.33
2022-11-28T17:04:53.778Z,1.48
2022-11-28T17:07:24.464Z,1.67
2022-11-28T17:09:51.612Z,1.80
2022-11-28T17:12:38.842Z,1.40
2022-11-28T17:15:13.487Z,1.52
2022-11-28T17:17:40.301Z,1.33
2022-11-28T17:20:08.189Z,1.40
2022-11-28T17:22:41.241Z,1.10
2022-11-28T17:25:16.809Z,1.52
2022-11-28T17:27:44.505Z,1.20
2022-11-28T17:32:42.645Z,0.90
2022-11-28T17:35:18.178Z,1.20
2022-11-28T17:37:44.982Z,1.35
2022-11-28T17:40:30.866Z,1.10
2022-11-28T17:42:57.743Z,1.05
2022-11-28T17:45:26.494Z,1.05
2022-11-28T17:47:54.150Z,1.35
2022-11-28T17:52:47.751Z,0.80
2022-11-28T17:55:14.584Z,1.10
2022-11-28T17:57:41.372Z,1.10
2022-11-28T18:00:16.842Z,0.90
2022-11-28T18:02:43.725Z,0.85
2022-11-28T18:05:10.930Z,0.77
2022-11-28T18:07:37.814Z,1.00
2022-11-28T18:10:05.475Z,0.85
2022-11-28T18:15:00.942Z,1.00
2022-11-28T18:17:27.741Z,0.85
2022-11-28T18:19:57.447Z,0.90
2022-11-28T18:22:24.960Z,0.70
2022-11-28T18:24:51.805Z,0.98
2022-11-28T18:27:18.628Z,0.95
2022-11-28T18:29:45.791Z,0.80
2022-11-28T18:32:12.901Z,0.90
2022-11-28T18:34:39.767Z,0.88
2022-11-28T18:37:07.237Z,0.95
2022-11-28T18:39:34.924Z,0.55
2022-11-28T18:44:28.517Z,0.70
2022-11-28T18:46:55.304Z,0.87
2022-11-28T18:49:22.124Z,0.90
2022-11-28T18:51:49.054Z,0.90
2022-11-28T18:54:20.781Z,0.68
2022-11-28T18:56:49.132Z,1.00
2022-11-28T19:01:42.910Z,0.80
2022-11-28T19:04:13.269Z,1.00
2022-11-28T19:06:42.878Z,0.82
2022-11-28T19:09:15.801Z,0.88
2022-11-28T19:11:43.842Z,1.08
2022-11-28T19:14:18.737Z,0.85
2022-11-28T19:16:46.994Z,1.45
2022-11-28T19:19:16.498Z,1.27
2022-11-28T19:21:43.414Z,1.58
2022-11-28T19:24:12.580Z,1.25
2022-11-28T19:26:39.776Z,1.23
2022-11-28T19:29:07.636Z,1.17
2022-11-28T19:31:37.343Z,1.25
2022-11-28T19:34:14.816Z,0.90
2022-11-28T19:36:50.992Z,0.87
2022-11-28T19:39:24.939Z,1.10
2022-11-28T19:41:53.884Z,1.17
2022-11-28T19:44:23.828Z,0.90
2022-11-28T19:46:50.860Z,0.93
2022-11-28T19:49:22.288Z,0.98
2022-11-28T19:51:50.644Z,0.90
2022-11-28T19:54:21.985Z,1.00
2022-11-28T19:56:49.393Z,1.05
2022-11-28T19:59:17.338Z,0.93
2022-11-28T20:01:44.427Z,1.10
2022-11-28T20:04:11.386Z,1.00
2022-11-28T20:06:38.241Z,1.30
2022-11-28T20:09:10.449Z,1.30
2022-11-28T20:11:38.626Z,1.40
2022-11-28T20:14:11.919Z,1.35
2022-11-28T20:16:39.013Z,1.08
2022-11-28T20:19:07.064Z,1.33
2022-11-28T20:21:34.570Z,1.20
2022-11-28T20:24:07.276Z,1.30
2022-11-28T20:26:40.522Z,1.15
2022-11-28T20:29:08.811Z,1.17
2022-11-28T20:31:41.967Z,1.13
2022-11-28T20:34:09.305Z,1.50
2022-11-28T20:36:36.650Z,1.27
2022-11-28T20:39:05.115Z,0.90
2022-11-28T20:41:32.783Z,1.30
2022-11-28T20:46:31.683Z,1.10
2022-11-28T20:49:02.503Z,1.08
2022-11-28T20:51:31.522Z,0.80
2022-11-28T20:53:59.933Z,0.98
2022-11-28T20:56:30.262Z,0.80
2022-11-28T20:59:02.203Z,1.08
2022-11-28T21:01:33.511Z,1.02
2022-11-28T21:04:02.757Z,0.90
2022-11-28T21:06:30.146Z,1.00
2022-11-28T21:08:57.725Z,1.10
2022-11-28T21:14:14.224Z,0.63
2022-11-28T21:16:41.479Z,0.65
2022-11-28T21:19:09.489Z,1.00
2022-11-28T21:21:39.701Z,0.73
2022-11-28T21:24:13.239Z,0.88
2022-11-28T21:26:46.595Z,0.73
2022-11-28T21:29:18.671Z,1.10
2022-11-28T21:31:46.697Z,0.77
2022-11-28T21:34:16.426Z,0.85
2022-11-28T21:36:43.485Z,0.90
2022-11-28T21:39:15.486Z,1.00
2022-11-28T21:41:42.597Z,0.75
2022-11-28T21:44:09.436Z,0.80
2022-11-28T21:46:36.328Z,0.90
2022-11-28T21:49:03.340Z,1.00
2022-11-28T21:51:30.190Z,0.60
2022-11-28T21:54:00.089Z,0.93
2022-11-28T21:56:26.952Z,0.75
2022-11-28T21:58:54.226Z,0.82
2022-11-28T22:01:21.898Z,0.95
2022-11-28T22:03:49.540Z,0.95
2022-11-28T22:06:20.349Z,1.00
2022-11-28T22:08:48.658Z,0.90
2022-11-28T22:11:16.665Z,0.85
2022-11-28T22:13:46.045Z,0.90
2022-11-28T22:16:31.184Z,0.90
2022-11-28T22:19:00.771Z,0.95
2022-11-28T22:21:51.297Z,1.00
2022-11-28T22:24:15.151Z,0.90
2022-11-28T22:26:41.987Z,1.08
2022-11-28T22:29:09.169Z,0.70
2022-11-28T22:31:36.178Z,0.82
2022-11-28T22:34:03.034Z,0.80
2022-11-28T22:36:31.299Z,0.70
2022-11-28T22:38:58.899Z,0.63
2022-11-28T22:44:00.836Z,0.70
2022-11-28T22:46:28.755Z,1.10
2022-11-28T22:51:25.484Z,0.70
2022-11-28T22:54:00.373Z,1.10
2022-11-28T22:56:28.705Z,0.80
2022-11-28T22:58:55.827Z,0.80
2022-11-28T23:01:27.346Z,0.85
2022-11-28T23:03:55.558Z,0.90
2022-11-28T23:06:30.375Z,0.80
2022-11-28T23:08:59.482Z,0.75
2022-11-28T23:11:32.655Z,0.70
2022-11-28T23:14:00.817Z,0.90
2022-11-28T23:16:34.554Z,0.70
2022-11-28T23:19:06.562Z,0.60
2022-11-28T23:21:37.099Z,0.95
2022-11-28T23:24:05.575Z,0.75
2022-11-28T23:26:33.560Z,0.82
2022-11-28T23:29:03.638Z,0.70
2022-11-28T23:31:33.970Z,0.75
2022-11-28T23:34:01.841Z,0.57
2022-11-28T23:36:31.296Z,0.82
2022-11-28T23:39:03.444Z,0.68
2022-11-28T23:41:31.171Z,0.75
2022-11-28T23:46:27.911Z,0.60
2022-11-28T23:48:55.264Z,0.80
2022-11-28T23:51:25.465Z,1.02
2022-11-28T23:53:53.203Z,0.70
2022-11-28T23:56:27.346Z,1.10
2022-11-28T23:58:56.483Z,0.85
